Time;durP1;ratioP1;P1;durP2;ratioP2;P2;SDS_P1;SDS_P2;PMS_P1;PMS_P2;Temp;Humidity;BMP_temperature;BMP_pressure;BME280_temperature;BME280_humidity;BME280_pressure;Samples;Min_cycle;Max_cycle;Signal;HPM_P1;HPM_P2
2021/10/22 00:02:22;;;;;;;6.70;1.53;;;8.50;99.90;;;;;;5073005;28;20443;-81
2021/10/22 00:04:48;;;;;;;10.40;1.80;;;8.40;99.90;;;;;;5073198;28;20472;-81
2021/10/22 00:07:16;;;;;;;3.50;1.70;;;8.40;99.90;;;;;;5072785;28;20981;-81
2021/10/22 00:09:43;;;;;;;5.00;1.57;;;8.40;99.90;;;;;;5072910;28;20452;-81
2021/10/22 00:12:09;;;;;;;3.63;1.70;;;8.30;99.90;;;;;;5072843;28;20472;-81
2021/10/22 00:14:36;;;;;;;5.17;1.30;;;8.30;99.90;;;;;;5072917;28;20861;-81
2021/10/22 00:17:02;;;;;;;5.87;1.47;;;8.30;99.90;;;;;;5072929;28;20534;-81
2021/10/22 00:19:32;;;;;;;7.90;2.10;;;8.30;99.90;;;;;;5072827;28;20486;-81
2021/10/22 00:22:01;;;;;;;6.17;1.70;;;8.30;99.90;;;;;;5072820;28;20640;-81
2021/10/22 00:24:28;;;;;;;7.90;1.73;;;8.20;99.90;;;;;;5072670;28;20809;-81
2021/10/22 00:26:54;;;;;;;11.90;2.70;;;8.20;99.90;;;;;;5072716;28;20554;-81
2021/10/22 00:29:21;;;;;;;11.70;2.10;;;8.10;99.90;;;;;;5072795;28;20487;-81
2021/10/22 00:31:48;;;;;;;8.70;2.03;;;8.10;99.90;;;;;;5072759;28;20471;-81
2021/10/22 00:34:14;;;;;;;6.50;1.50;;;8.10;99.90;;;;;;5072547;28;20935;-81
2021/10/22 00:36:42;;;;;;;8.93;1.80;;;8.10;99.90;;;;;;5072496;28;20959;-81
2021/10/22 00:39:11;;;;;;;7.87;2.00;;;8.10;99.90;;;;;;5071546;28;20495;-81
2021/10/22 00:41:39;;;;;;;6.67;2.53;;;8.10;99.90;;;;;;5072867;28;20455;-81
2021/10/22 00:44:05;;;;;;;5.30;1.87;;;8.10;99.90;;;;;;5072618;28;20447;-81
2021/10/22 00:46:35;;;;;;;6.63;2.43;;;8.00;99.90;;;;;;5072277;28;20538;-81
2021/10/22 00:49:01;;;;;;;7.70;1.73;;;8.00;99.90;;;;;;5072633;28;20455;-81
2021/10/22 00:51:29;;;;;;;5.10;1.47;;;8.00;99.90;;;;;;5072215;28;20447;-81
2021/10/22 00:53:57;;;;;;;7.50;2.00;;;8.10;99.90;;;;;;5072296;28;20546;-81
2021/10/22 00:56:24;;;;;;;8.10;1.87;;;8.00;99.90;;;;;;5071380;28;20538;-81
2021/10/22 00:58:51;;;;;;;8.30;1.33;;;8.00;99.90;;;;;;5072450;28;20454;-81
2021/10/22 01:01:18;;;;;;;7.10;2.20;;;8.00;99.90;;;;;;5072048;28;20926;-81
2021/10/22 01:03:44;;;;;;;7.00;1.63;;;8.00;99.90;;;;;;5072211;28;20815;-81
2021/10/22 01:06:11;;;;;;;2.07;1.30;;;8.00;99.90;;;;;;5072023;28;20902;-81
2021/10/22 01:08:37;;;;;;;11.70;1.80;;;8.00;99.90;;;;;;5072325;28;20986;-81
2021/10/22 01:11:05;;;;;;;8.83;2.87;;;7.90;99.90;;;;;;5072203;28;20521;-81
2021/10/22 01:13:32;;;;;;;4.70;1.90;;;8.00;99.90;;;;;;5070331;28;20551;-81
2021/10/22 01:15:59;;;;;;;8.43;2.30;;;7.90;99.90;;;;;;5072265;28;20478;-81
2021/10/22 01:18:27;;;;;;;10.67;1.93;;;7.90;99.90;;;;;;5072278;28;20482;-81
2021/10/22 01:20:58;;;;;;;6.50;2.40;;;7.90;99.90;;;;;;5072364;28;20462;-81
2021/10/22 01:23:25;;;;;;;4.63;1.90;;;8.00;99.90;;;;;;5072460;28;20455;-81
2021/10/22 01:25:51;;;;;;;11.57;2.30;;;7.90;99.90;;;;;;5072337;28;20497;-81
2021/10/22 01:28:19;;;;;;;8.83;1.90;;;8.00;99.90;;;;;;5072231;28;20571;-81
2021/10/22 01:30:47;;;;;;;7.27;2.20;;;7.90;99.90;;;;;;5066545;28;20455;-81
2021/10/22 01:33:17;;;;;;;8.50;1.70;;;7.90;99.90;;;;;;5072083;28;20934;-81
2021/10/22 01:35:44;;;;;;;5.27;2.50;;;7.90;99.90;;;;;;5072006;28;20462;-81
2021/10/22 01:38:12;;;;;;;10.30;2.07;;;7.90;99.90;;;;;;5072161;28;20523;-81
2021/10/22 01:40:39;;;;;;;4.50;1.53;;;7.90;99.90;;;;;;5071700;28;21001;-81
2021/10/22 01:43:06;;;;;;;4.33;1.93;;;7.90;99.90;;;;;;5071771;28;20490;-81
2021/10/22 01:45:32;;;;;;;6.70;1.87;;;7.80;99.90;;;;;;5071602;28;20475;-81
2021/10/22 01:47:59;;;;;;;9.43;3.10;;;7.80;99.90;;;;;;5071675;28;20498;-81
2021/10/22 01:50:26;;;;;;;5.03;1.70;;;7.80;99.90;;;;;;5071786;28;20467;-82
2021/10/22 01:52:53;;;;;;;12.30;3.37;;;7.80;99.90;;;;;;5072109;28;20537;-81
2021/10/22 01:55:21;;;;;;;5.27;2.00;;;7.90;99.90;;;;;;5071350;28;21017;-81
2021/10/22 01:57:48;;;;;;;7.20;2.90;;;7.80;99.90;;;;;;5071911;28;20485;-81
2021/10/22 02:00:14;;;;;;;12.40;2.03;;;7.90;99.90;;;;;;5071793;28;20527;-81
2021/10/22 02:02:41;;;;;;;18.17;2.10;;;7.90;99.90;;;;;;5071833;28;20520;-81
2021/10/22 02:05:08;;;;;;;7.70;1.83;;;7.90;99.90;;;;;;5071663;28;20474;-81
2021/10/22 02:07:35;;;;;;;7.07;1.57;;;7.80;99.90;;;;;;5071805;28;20296;-81
2021/10/22 02:10:02;;;;;;;4.83;1.60;;;7.90;99.90;;;;;;5075280;28;20461;-81
2021/10/22 02:12:30;;;;;;;10.13;2.37;;;7.90;99.90;;;;;;5075180;28;20504;-81
2021/10/22 02:14:57;;;;;;;6.10;1.90;;;7.90;99.90;;;;;;5073259;28;20459;-81
2021/10/22 02:17:23;;;;;;;18.40;2.17;;;7.90;99.90;;;;;;5075181;28;20451;-81
2021/10/22 02:19:50;;;;;;;6.93;1.70;;;7.90;99.90;;;;;;5075114;28;20475;-81
2021/10/22 02:22:17;;;;;;;7.27;1.63;;;7.90;99.90;;;;;;5075338;28;20454;-81
2021/10/22 02:24:43;;;;;;;7.43;2.07;;;7.80;99.90;;;;;;5074861;28;20487;-81
2021/10/22 02:27:10;;;;;;;16.80;1.97;;;7.80;99.90;;;;;;5074850;28;20467;-81
2021/10/22 02:29:38;;;;;;;7.80;2.20;;;7.80;99.90;;;;;;5074755;28;20452;-81
2021/10/22 02:32:05;;;;;;;8.30;2.20;;;7.90;99.90;;;;;;5075036;28;20542;-81
2021/10/22 02:34:31;;;;;;;3.73;1.90;;;7.80;99.90;;;;;;5074863;28;20811;-82
2021/10/22 02:36:58;;;;;;;3.47;1.50;;;7.90;99.90;;;;;;5075039;28;20493;-81
2021/10/22 02:39:25;;;;;;;6.00;2.50;;;7.90;99.90;;;;;;5074628;28;20471;-81
2021/10/22 02:41:52;;;;;;;5.30;1.87;;;8.00;99.90;;;;;;5074786;28;20496;-81
2021/10/22 02:44:18;;;;;;;12.10;2.67;;;7.90;99.90;;;;;;5070913;28;20493;-81
2021/10/22 02:46:46;;;;;;;9.27;2.00;;;8.00;99.90;;;;;;5074705;28;20951;-81
2021/10/22 02:49:12;;;;;;;13.60;1.80;;;8.00;99.90;;;;;;5074629;28;20846;-81
2021/10/22 02:51:39;;;;;;;7.47;2.00;;;8.00;99.90;;;;;;5074415;28;20535;-81
2021/10/22 02:54:05;;;;;;;5.43;1.90;;;8.10;99.90;;;;;;5074591;28;20530;-81
2021/10/22 02:56:32;;;;;;;4.73;1.73;;;8.00;99.90;;;;;;5074344;28;20534;-81
2021/10/22 02:58:59;;;;;;;9.10;1.93;;;8.10;99.90;;;;;;5074434;28;20857;-81
2021/10/22 03:01:25;;;;;;;8.87;1.90;;;8.20;99.90;;;;;;5074122;28;20916;-81
2021/10/22 03:03:53;;;;;;;9.43;3.10;;;8.20;99.90;;;;;;5074507;28;20550;-81
2021/10/22 03:06:20;;;;;;;10.53;2.07;;;8.20;99.90;;;;;;5074385;28;20538;-81
2021/10/22 03:08:47;;;;;;;8.47;1.90;;;8.20;99.90;;;;;;5074096;28;20524;-81
2021/10/22 03:11:13;;;;;;;8.13;2.07;;;8.20;99.90;;;;;;5074081;28;20483;-81
2021/10/22 03:13:40;;;;;;;4.73;1.97;;;8.20;99.90;;;;;;5072318;28;20508;-81
2021/10/22 03:16:06;;;;;;;9.07;1.90;;;8.30;99.90;;;;;;5074352;28;20472;-81
2021/10/22 03:18:33;;;;;;;5.20;1.87;;;8.30;99.90;;;;;;5073943;28;20539;-81
2021/10/22 03:21:01;;;;;;;4.67;2.00;;;8.30;99.90;;;;;;5073307;28;20445;-81
2021/10/22 03:23:27;;;;;;;6.20;2.13;;;8.30;99.90;;;;;;5063285;28;20554;-81
2021/10/22 03:25:54;;;;;;;7.70;2.10;;;8.30;99.90;;;;;;5073747;28;20479;-81
2021/10/22 03:28:21;;;;;;;8.07;2.37;;;8.30;99.90;;;;;;5073939;28;20479;-81
2021/10/22 03:30:47;;;;;;;8.23;2.30;;;8.30;99.90;;;;;;5073963;28;20475;-81
2021/10/22 03:33:14;;;;;;;6.43;2.13;;;8.30;99.90;;;;;;5074026;28;20448;-81
2021/10/22 03:35:41;;;;;;;14.30;2.23;;;8.30;99.90;;;;;;5073747;28;20931;-82
2021/10/22 03:38:09;;;;;;;5.53;2.00;;;8.40;99.90;;;;;;5073691;28;20479;-81
2021/10/22 03:40:36;;;;;;;8.77;3.07;;;8.30;99.90;;;;;;5071417;28;20511;-81
2021/10/22 03:43:02;;;;;;;12.23;2.87;;;8.30;99.90;;;;;;5072214;28;20934;-81
2021/10/22 03:45:29;;;;;;;10.53;2.13;;;8.30;99.90;;;;;;5071796;28;20539;-81
2021/10/22 03:47:56;;;;;;;6.90;2.20;;;8.30;99.90;;;;;;5071783;28;20981;-81
2021/10/22 03:50:25;;;;;;;11.47;1.93;;;8.30;99.90;;;;;;5072041;28;20486;-81
2021/10/22 03:52:51;;;;;;;9.30;1.93;;;8.30;99.90;;;;;;5071894;28;20528;-81
2021/10/22 03:55:19;;;;;;;6.40;1.60;;;8.30;99.90;;;;;;5072576;28;20533;-81
2021/10/22 03:57:46;;;;;;;2.00;1.23;;;8.30;99.90;;;;;;5073826;28;20879;-81
2021/10/22 04:00:13;;;;;;;11.63;1.77;;;8.20;99.90;;;;;;5073650;28;20486;-81
2021/10/22 04:02:40;;;;;;;10.70;2.50;;;8.30;99.90;;;;;;5073579;28;20847;-81
2021/10/22 04:05:08;;;;;;;3.70;1.80;;;8.30;99.90;;;;;;5073573;28;20523;-81
2021/10/22 04:07:35;;;;;;;4.13;1.97;;;8.30;99.90;;;;;;5073315;28;20535;-81
2021/10/22 04:10:03;;;;;;;5.40;1.73;;;8.30;99.90;;;;;;5073400;28;20942;-82
2021/10/22 04:12:31;;;;;;;5.10;1.73;;;8.30;99.90;;;;;;5073513;28;20443;-81
2021/10/22 04:14:57;;;;;;;4.50;2.07;;;8.30;99.90;;;;;;5071618;28;20950;-81
2021/10/22 04:17:24;;;;;;;10.33;2.27;;;8.20;99.90;;;;;;5073186;28;20456;-81
2021/10/22 04:19:50;;;;;;;6.37;1.67;;;8.20;99.90;;;;;;5073393;28;20444;-81
2021/10/22 04:22:17;;;;;;;5.20;1.60;;;8.20;99.90;;;;;;5072975;28;20479;-81
2021/10/22 04:24:43;;;;;;;6.07;1.93;;;8.20;99.90;;;;;;5073090;28;20531;-81
2021/10/22 04:27:10;;;;;;;6.27;1.63;;;8.20;99.90;;;;;;5073206;28;20534;-81
2021/10/22 04:29:38;;;;;;;15.70;2.00;;;8.20;99.90;;;;;;5072911;28;21002;-81
2021/10/22 04:32:05;;;;;;;10.67;2.57;;;8.10;99.90;;;;;;5072926;28;20534;-81
2021/10/22 04:34:32;;;;;;;7.43;1.83;;;8.10;99.90;;;;;;5073570;28;20473;-81
2021/10/22 04:37:21;;;;;;;4.83;2.10;;;8.10;99.90;;;;;;5073015;28;20448;-81
2021/10/22 04:42:32;;;;;;;6.00;1.80;;;8.00;99.90;;;;;;5072903;28;20593;-81
2021/10/22 04:45:01;;;;;;;5.30;1.50;;;8.00;99.90;;;;;;5073003;28;20475;-81
2021/10/22 04:47:27;;;;;;;3.93;1.93;;;8.10;99.90;;;;;;5056541;28;20475;-81
2021/10/22 04:49:54;;;;;;;11.90;4.20;;;8.10;99.90;;;;;;5072902;28;20562;-81
2021/10/22 04:52:20;;;;;;;4.80;2.40;;;8.10;99.90;;;;;;5072866;28;20440;-81
2021/10/22 04:54:47;;;;;;;6.47;2.23;;;8.00;99.90;;;;;;5072826;28;20443;-81
2021/10/22 04:57:13;;;;;;;8.03;1.70;;;8.00;99.90;;;;;;5072631;28;20474;-81
2021/10/22 04:59:40;;;;;;;11.07;2.43;;;8.10;99.90;;;;;;5073095;28;20542;-81
2021/10/22 05:02:08;;;;;;;8.80;2.03;;;8.10;99.90;;;;;;5072612;28;20954;-81
2021/10/22 05:04:35;;;;;;;4.57;1.90;;;8.10;99.90;;;;;;5072735;28;20448;-81
2021/10/22 05:07:01;;;;;;;5.80;1.80;;;8.10;99.90;;;;;;5072470;28;20530;-81
2021/10/22 05:09:28;;;;;;;8.03;2.07;;;8.10;99.90;;;;;;5072400;28;20482;-81
2021/10/22 05:11:55;;;;;;;5.57;1.70;;;8.00;99.90;;;;;;5072492;28;20531;-81
2021/10/22 05:14:21;;;;;;;8.60;2.00;;;8.00;99.90;;;;;;5070549;28;20509;-81
2021/10/22 05:16:48;;;;;;;7.83;1.83;;;7.90;99.90;;;;;;5072705;28;20505;-81
2021/10/22 05:19:16;;;;;;;3.97;1.80;;;7.80;99.90;;;;;;5072780;28;20493;-81
2021/10/22 05:21:42;;;;;;;4.93;1.50;;;7.90;99.90;;;;;;5072368;28;20534;-81
2021/10/22 05:24:09;;;;;;;4.80;1.60;;;7.90;99.90;;;;;;5072515;28;20543;-81
2021/10/22 05:26:35;;;;;;;6.97;1.40;;;7.90;99.90;;;;;;5072379;28;20810;-81
2021/10/22 05:29:02;;;;;;;5.23;1.87;;;8.00;99.90;;;;;;5072162;28;20529;-81
2021/10/22 05:31:30;;;;;;;7.33;1.83;;;8.00;99.90;;;;;;5072530;28;20532;-81
2021/10/22 05:33:57;;;;;;;6.23;1.50;;;8.00;99.90;;;;;;5072461;28;20483;-81
2021/10/22 05:36:26;;;;;;;5.53;1.60;;;8.00;99.90;;;;;;5072510;28;20444;-81
2021/10/22 05:38:52;;;;;;;1.90;1.30;;;8.00;99.90;;;;;;5072273;28;20935;-81
2021/10/22 05:41:19;;;;;;;6.20;1.80;;;8.00;99.90;;;;;;5072101;28;20494;-81
2021/10/22 05:43:45;;;;;;;2.20;1.47;;;8.00;99.90;;;;;;5074401;28;20500;-81
2021/10/22 05:46:12;;;;;;;4.20;1.80;;;8.00;99.90;;;;;;5076570;28;20484;-81
2021/10/22 05:48:39;;;;;;;15.00;1.80;;;8.00;99.90;;;;;;5076315;28;20973;-81
2021/10/22 05:51:06;;;;;;;3.93;1.60;;;7.90;99.90;;;;;;5076080;28;20474;-81
2021/10/22 05:53:33;;;;;;;9.27;2.30;;;7.80;99.90;;;;;;5075869;28;20459;-81
2021/10/22 05:56:00;;;;;;;8.13;1.80;;;7.80;99.90;;;;;;5075943;28;20526;-81
2021/10/22 05:58:27;;;;;;;9.38;1.80;;;7.80;99.90;;;;;;5076038;28;20475;-81
2021/10/22 06:00:53;;;;;;;13.60;2.10;;;7.90;99.90;;;;;;5076042;28;20280;-81
2021/10/22 06:03:20;;;;;;;5.73;2.20;;;8.00;99.90;;;;;;5075780;28;20542;-81
2021/10/22 06:05:51;;;;;;;10.20;1.53;;;8.00;99.90;;;;;;5075708;28;20501;-81
2021/10/22 06:08:18;;;;;;;5.80;1.73;;;8.10;99.90;;;;;;5075638;28;20463;-81
2021/10/22 06:10:48;;;;;;;7.23;1.73;;;8.10;99.90;;;;;;5075966;28;20440;-81
2021/10/22 06:13:15;;;;;;;6.47;2.20;;;8.10;99.90;;;;;;5075567;28;20849;-81
2021/10/22 06:15:42;;;;;;;8.20;2.50;;;8.20;99.90;;;;;;5075662;28;20459;-81
2021/10/22 06:18:09;;;;;;;2.47;1.40;;;8.20;99.90;;;;;;5075876;28;20482;-81
2021/10/22 06:20:44;;;;;;;5.63;1.70;;;8.30;99.90;;;;;;5074550;28;20454;-81
2021/10/22 06:25:55;;;;;;;5.03;1.77;;;8.50;99.90;;;;;;5075707;28;20434;-81
2021/10/22 06:28:22;;;;;;;8.67;2.30;;;8.50;99.90;;;;;;5075518;28;20474;-81
2021/10/22 06:30:48;;;;;;;5.17;1.50;;;8.60;99.90;;;;;;5075174;28;20496;-81
2021/10/22 06:33:15;;;;;;;4.17;1.87;;;8.80;99.90;;;;;;5075390;28;20485;-81
2021/10/22 06:35:43;;;;;;;6.60;1.50;;;8.90;99.90;;;;;;5074695;28;20525;-81
2021/10/22 06:38:10;;;;;;;3.10;1.40;;;8.90;99.90;;;;;;5075117;28;20435;-81
2021/10/22 06:40:36;;;;;;;8.93;2.37;;;9.00;99.90;;;;;;5074958;28;20525;-81
2021/10/22 06:43:04;;;;;;;4.77;2.50;;;9.00;99.90;;;;;;5075088;28;20486;-81
2021/10/22 06:45:31;;;;;;;8.57;1.80;;;9.00;99.90;;;;;;5074878;28;20534;-81
2021/10/22 06:47:58;;;;;;;5.67;1.73;;;9.10;99.90;;;;;;5075085;28;20452;-81
2021/10/22 06:50:24;;;;;;;16.10;3.47;;;9.10;99.90;;;;;;5074499;28;20499;-81
2021/10/22 06:52:51;;;;;;;6.33;2.10;;;9.20;99.90;;;;;;5074745;28;20471;-81
2021/10/22 06:55:17;;;;;;;13.20;2.00;;;9.30;99.90;;;;;;5071972;28;20435;-81
2021/10/22 06:57:44;;;;;;;3.60;2.03;;;9.40;99.90;;;;;;5074347;28;20497;-81
2021/10/22 07:00:12;;;;;;;7.63;1.63;;;9.40;99.90;;;;;;5074182;28;20501;-81
2021/10/22 07:02:47;;;;;;;7.40;1.70;;;9.50;99.90;;;;;;5072387;28;20867;-81
2021/10/22 07:05:25;;;;;;;7.73;2.33;;;9.40;99.90;;;;;;5073098;28;20442;-81
2021/10/22 07:07:50;;;;;;;4.30;1.67;;;9.50;99.90;;;;;;5074832;28;20461;-81
2021/10/22 07:10:17;;;;;;;6.27;2.10;;;9.60;99.90;;;;;;5074499;28;20478;-81
2021/10/22 07:12:44;;;;;;;13.80;1.97;;;9.50;99.90;;;;;;5067918;28;21007;-81
2021/10/22 07:15:12;;;;;;;6.30;2.20;;;9.50;99.90;;;;;;5072337;28;20459;-81
2021/10/22 07:17:39;;;;;;;7.33;1.80;;;9.50;99.90;;;;;;5074168;28;20824;-81
2021/10/22 07:20:07;;;;;;;6.40;1.30;;;9.60;99.90;;;;;;5074533;28;20443;-81
2021/10/22 07:22:34;;;;;;;5.40;2.10;;;9.60;99.90;;;;;;5074511;28;20501;-81
2021/10/22 07:25:03;;;;;;;8.33;1.90;;;9.60;99.90;;;;;;5074276;28;20497;-81
2021/10/22 07:27:30;;;;;;;5.30;1.30;;;9.70;99.90;;;;;;5074090;28;20451;-81
2021/10/22 07:29:57;;;;;;;6.23;2.00;;;9.70;99.90;;;;;;5074299;28;20483;-81
2021/10/22 07:32:25;;;;;;;5.00;1.70;;;9.80;99.90;;;;;;5074184;28;20447;-81
2021/10/22 07:34:51;;;;;;;4.13;1.43;;;9.80;99.90;;;;;;5074213;28;20530;-81
2021/10/22 07:37:18;;;;;;;6.40;1.77;;;9.90;99.90;;;;;;5073996;28;20483;-81
2021/10/22 07:39:44;;;;;;;7.60;2.03;;;10.00;99.90;;;;;;5073773;28;20808;-81
2021/10/22 07:42:11;;;;;;;8.23;1.90;;;10.00;99.90;;;;;;5073875;28;20446;-81
2021/10/22 07:44:37;;;;;;;2.80;1.50;;;10.10;99.90;;;;;;5074204;28;20448;-81
2021/10/22 07:47:04;;;;;;;8.27;2.10;;;10.10;99.90;;;;;;5074187;28;20899;-81
2021/10/22 07:49:32;;;;;;;5.40;1.50;;;10.10;99.90;;;;;;5073953;28;20467;-81
2021/10/22 07:52:00;;;;;;;6.20;2.00;;;10.20;99.90;;;;;;5074033;28;20836;-82
2021/10/22 07:54:26;;;;;;;7.17;4.00;;;10.20;99.90;;;;;;5073896;28;20451;-81
2021/10/22 07:56:53;;;;;;;5.03;2.03;;;10.10;99.90;;;;;;5073674;28;20447;-82
2021/10/22 07:59:19;;;;;;;6.83;1.70;;;10.20;99.90;;;;;;5073848;28;20444;-82
2021/10/22 08:01:46;;;;;;;4.30;1.63;;;10.30;99.90;;;;;;5073655;28;20875;-82
2021/10/22 08:04:13;;;;;;;9.97;2.87;;;10.30;99.90;;;;;;5073769;28;20951;-82
2021/10/22 08:06:41;;;;;;;7.90;1.97;;;10.40;99.90;;;;;;5073058;28;20845;-81
2021/10/22 08:09:08;;;;;;;9.10;2.27;;;10.40;99.90;;;;;;5073264;28;21023;-82
2021/10/22 08:11:35;;;;;;;4.53;1.67;;;10.40;99.90;;;;;;5073428;28;20483;-82
2021/10/22 08:14:02;;;;;;;5.83;1.63;;;10.40;99.90;;;;;;5064836;28;20522;-82
2021/10/22 08:16:28;;;;;;;9.10;1.90;;;10.40;99.90;;;;;;5073330;28;20455;-82
2021/10/22 08:18:55;;;;;;;4.80;1.97;;;10.40;99.90;;;;;;5073256;28;20479;-83
2021/10/22 08:21:22;;;;;;;7.50;1.63;;;10.30;99.90;;;;;;5072965;28;20443;-82
2021/10/22 08:23:51;;;;;;;5.43;2.00;;;10.40;99.90;;;;;;5067911;28;20497;-82
2021/10/22 08:26:18;;;;;;;6.50;2.40;;;10.30;99.90;;;;;;5072928;28;20471;-82
2021/10/22 08:28:45;;;;;;;5.07;1.87;;;10.30;99.90;;;;;;5072703;28;20443;-82
2021/10/22 08:31:12;;;;;;;8.90;2.03;;;10.40;99.90;;;;;;5072883;28;20501;-82
2021/10/22 08:33:39;;;;;;;7.00;1.50;;;10.40;99.90;;;;;;5072480;28;20483;-82
2021/10/22 08:36:07;;;;;;;4.93;1.93;;;10.40;99.90;;;;;;5072499;28;20450;-82
2021/10/22 08:38:34;;;;;;;6.77;2.03;;;10.40;99.90;;;;;;5072297;28;20505;-82
2021/10/22 08:41:03;;;;;;;7.93;2.73;;;10.40;99.90;;;;;;5072248;28;20528;-82
2021/10/22 08:43:29;;;;;;;7.50;2.40;;;10.50;99.90;;;;;;5065995;28;21018;-82
2021/10/22 08:45:58;;;;;;;6.93;1.80;;;10.50;99.90;;;;;;5072651;28;20780;-82
2021/10/22 08:48:25;;;;;;;11.03;2.10;;;10.50;99.90;;;;;;5072626;28;20443;-82
2021/10/22 08:50:52;;;;;;;5.83;2.00;;;10.60;99.90;;;;;;5072535;28;20479;-82
2021/10/22 08:53:19;;;;;;;7.37;1.77;;;10.70;99.90;;;;;;5072501;28;20523;-82
2021/10/22 08:55:46;;;;;;;7.47;2.03;;;10.70;99.90;;;;;;5072606;28;20507;-82
2021/10/22 08:58:18;;;;;;;7.80;2.20;;;10.70;99.90;;;;;;5072726;28;20447;-82
2021/10/22 09:00:45;;;;;;;7.03;1.90;;;10.70;99.90;;;;;;5072733;28;20470;-82
2021/10/22 09:03:14;;;;;;;5.07;1.93;;;10.90;99.90;;;;;;5072232;28;20989;-83
2021/10/22 09:06:00;;;;;;;5.20;2.00;;;10.90;99.90;;;;;;5072245;28;20452;-82
2021/10/22 09:08:34;;;;;;;4.50;2.17;;;11.00;99.90;;;;;;5072379;28;20453;-82
2021/10/22 09:11:01;;;;;;;4.27;2.00;;;11.10;99.90;;;;;;5072517;28;20479;-82
2021/10/22 09:13:30;;;;;;;4.30;1.70;;;11.20;99.90;;;;;;5061703;28;20452;-82
2021/10/22 09:15:58;;;;;;;8.07;2.13;;;11.30;99.90;;;;;;5072304;28;20470;-82
2021/10/22 09:18:28;;;;;;;7.00;2.83;;;11.40;99.90;;;;;;5071902;28;20455;-81
2021/10/22 09:20:58;;;;;;;7.00;2.10;;;11.50;99.90;;;;;;5072518;28;20451;-82
2021/10/22 09:23:26;;;;;;;7.23;2.03;;;11.50;99.90;;;;;;5072383;28;20454;-82
2021/10/22 09:25:54;;;;;;;6.20;2.90;;;11.70;99.90;;;;;;5072109;28;20561;-82
2021/10/22 09:28:27;;;;;;;5.37;1.90;;;11.90;99.90;;;;;;5071898;28;20534;-82
2021/10/22 09:30:55;;;;;;;6.00;2.00;;;12.00;99.90;;;;;;5067604;28;20485;-82
2021/10/22 09:33:23;;;;;;;5.07;2.10;;;12.20;99.90;;;;;;5072129;28;20452;-82
2021/10/22 09:35:50;;;;;;;4.40;2.43;;;12.20;99.90;;;;;;5071713;28;20502;-82
2021/10/22 09:38:20;;;;;;;5.43;1.93;;;12.30;99.90;;;;;;5072166;28;20447;-82
2021/10/22 09:40:50;;;;;;;4.63;2.27;;;12.30;99.90;;;;;;5066262;28;20478;-82
2021/10/22 09:43:24;;;;;;;7.73;2.17;;;12.30;99.90;;;;;;5071762;28;20974;-82
2021/10/22 09:45:54;;;;;;;9.33;2.17;;;12.30;99.90;;;;;;5072080;28;20500;-82
2021/10/22 09:48:30;;;;;;;6.87;2.20;;;12.20;99.90;;;;;;5072343;28;20461;-82
2021/10/22 09:51:18;;;;;;;2.83;1.70;;;12.20;99.90;;;;;;5067858;28;20483;-82
2021/10/22 09:53:48;;;;;;;5.73;2.10;;;12.30;99.90;;;;;;5063486;28;20487;-82
2021/10/22 09:56:22;;;;;;;6.53;2.37;;;12.20;99.90;;;;;;5072012;28;20518;-82
2021/10/22 09:58:58;;;;;;;3.53;1.77;;;12.30;99.90;;;;;;5066721;28;20451;-82
2021/10/22 10:01:30;;;;;;;6.97;2.40;;;12.30;99.90;;;;;;5072005;28;20470;-82
2021/10/22 10:04:01;;;;;;;6.20;2.77;;;12.30;99.90;;;;;;5071897;28;20756;-82
2021/10/22 10:06:29;;;;;;;7.60;2.40;;;12.30;99.90;;;;;;5071660;28;20483;-82
2021/10/22 10:08:56;;;;;;;7.93;2.90;;;12.20;99.90;;;;;;5071775;28;20455;-82
2021/10/22 10:11:25;;;;;;;5.17;2.03;;;12.10;99.90;;;;;;5071333;28;20478;-82
2021/10/22 10:13:52;;;;;;;4.93;2.20;;;12.10;99.90;;;;;;5068206;28;20877;-82
2021/10/22 10:16:19;;;;;;;5.40;2.47;;;12.10;99.90;;;;;;5071400;28;20479;-82
2021/10/22 10:18:52;;;;;;;5.90;2.37;;;12.10;99.90;;;;;;5071890;28;20475;-82
2021/10/22 10:21:22;;;;;;;3.30;2.17;;;12.10;99.90;;;;;;5071660;28;20865;-82
2021/10/22 10:23:50;;;;;;;9.00;2.50;;;12.20;99.90;;;;;;5071539;28;20819;-82
2021/10/22 10:26:26;;;;;;;7.23;2.70;;;12.10;99.90;;;;;;5071201;28;20458;-82
2021/10/22 10:28:54;;;;;;;5.50;2.57;;;12.00;99.90;;;;;;5067810;28;20579;-82
2021/10/22 10:31:30;;;;;;;5.13;1.97;;;11.80;99.90;;;;;;5074917;28;20479;-82
2021/10/22 10:33:57;;;;;;;5.73;2.00;;;11.60;99.90;;;;;;5075237;28;20534;-82
2021/10/22 10:36:51;;;;;;;4.63;2.07;;;11.50;99.90;;;;;;5074976;28;20443;-82
2021/10/22 10:39:51;;;;;;;5.90;2.57;;;11.40;99.90;;;;;;5074552;28;20463;-82
2021/10/22 10:42:18;;;;;;;8.20;2.87;;;11.30;99.90;;;;;;5074978;28;20861;-82
2021/10/22 10:44:45;;;;;;;7.90;2.20;;;11.20;99.90;;;;;;5074826;28;20455;-82
2021/10/22 10:47:40;;;;;;;10.77;2.80;;;11.10;99.90;;;;;;5075033;28;20864;-83
2021/10/22 10:50:08;;;;;;;5.37;2.40;;;11.10;99.90;;;;;;5074686;28;20491;-82
2021/10/22 10:52:54;;;;;;;4.43;2.33;;;11.00;99.90;;;;;;5074529;28;20447;-82
2021/10/22 10:55:26;;;;;;;4.70;2.40;;;10.90;99.90;;;;;;5074604;28;20861;-82
2021/10/22 10:57:58;;;;;;;9.23;2.73;;;10.90;99.90;;;;;;5073742;28;20443;-82
2021/10/22 11:00:29;;;;;;;4.50;2.10;;;10.90;99.90;;;;;;5074264;28;20539;-82
2021/10/22 11:03:20;;;;;;;5.80;2.20;;;10.90;99.90;;;;;;5074755;28;20440;-82
2021/10/22 11:06:07;;;;;;;7.83;2.27;;;10.90;99.90;;;;;;5066199;28;20493;-82
2021/10/22 11:08:46;;;;;;;4.67;2.13;;;10.90;99.90;;;;;;5074286;28;20874;-82
2021/10/22 11:11:40;;;;;;;9.17;2.40;;;10.90;99.90;;;;;;5074262;28;20479;-82
2021/10/22 11:14:25;;;;;;;5.73;2.20;;;10.90;99.90;;;;;;5077328;28;21036;-82
2021/10/22 11:16:54;;;;;;;6.97;2.40;;;10.80;99.90;;;;;;5069397;28;20451;-82
2021/10/22 11:19:35;;;;;;;11.57;3.17;;;10.80;99.90;;;;;;5074099;28;20819;-82
2021/10/22 11:22:07;;;;;;;6.97;2.10;;;10.80;99.90;;;;;;5074162;28;20930;-82
2021/10/22 11:24:37;;;;;;;5.33;2.30;;;10.90;99.90;;;;;;5074212;28;20440;-82
2021/10/22 11:27:05;;;;;;;3.80;1.87;;;10.90;99.90;;;;;;5074043;28;20443;-82
2021/10/22 11:29:33;;;;;;;6.20;2.77;;;10.90;99.90;;;;;;5074048;28;20447;-81
2021/10/22 11:32:02;;;;;;;6.23;2.50;;;11.00;99.90;;;;;;5073457;28;20486;-82
2021/10/22 11:34:35;;;;;;;4.13;2.03;;;11.00;99.90;;;;;;5073950;28;20447;-82
2021/10/22 11:37:05;;;;;;;2.43;1.70;;;11.10;99.90;;;;;;5073847;28;20814;-82
2021/10/22 11:39:34;;;;;;;7.13;2.50;;;11.20;99.90;;;;;;5073324;28;21063;-82
2021/10/22 11:42:11;;;;;;;7.43;2.20;;;11.40;99.90;;;;;;5072767;28;20443;-82
2021/10/22 11:44:41;;;;;;;5.47;1.80;;;11.60;99.90;;;;;;5073542;28;20997;-82
2021/10/22 11:47:10;;;;;;;6.30;2.23;;;11.90;99.90;;;;;;5073797;28;20443;-81
2021/10/22 11:49:42;;;;;;;8.60;2.63;;;12.10;99.90;;;;;;5073354;28;20443;-82
2021/10/22 11:52:14;;;;;;;7.57;2.00;;;12.30;99.90;;;;;;5073397;28;20497;-82
2021/10/22 11:54:43;;;;;;;7.60;1.90;;;12.40;99.90;;;;;;5073711;28;20447;-82
2021/10/22 11:57:13;;;;;;;4.90;1.73;;;12.50;99.90;;;;;;5073522;28;20444;-82
2021/10/22 11:59:46;;;;;;;5.03;1.90;;;12.60;99.90;;;;;;5073475;28;20524;-82
2021/10/22 12:02:15;;;;;;;5.70;1.53;;;12.70;99.90;;;;;;5073336;28;20475;-82
2021/10/22 12:04:42;;;;;;;3.37;2.03;;;12.70;99.90;;;;;;5072962;28;20481;-82
2021/10/22 12:07:10;;;;;;;7.80;1.93;;;12.80;99.90;;;;;;5073226;28;20482;-82
2021/10/22 12:09:39;;;;;;;5.47;1.87;;;12.90;99.90;;;;;;5072859;28;20498;-82
2021/10/22 12:12:14;;;;;;;5.73;1.77;;;12.90;99.90;;;;;;5071270;28;20483;-82
2021/10/22 12:14:44;;;;;;;4.50;1.97;;;13.00;99.90;;;;;;5072896;28;20443;-82
2021/10/22 12:17:13;;;;;;;6.23;1.50;;;12.90;99.90;;;;;;5072745;28;20455;-82
2021/10/22 12:19:43;;;;;;;5.00;1.20;;;12.80;99.90;;;;;;5073162;28;20463;-82
2021/10/22 12:22:10;;;;;;;5.67;1.83;;;12.70;99.90;;;;;;5073277;28;20459;-82
2021/10/22 12:24:51;;;;;;;9.70;2.30;;;12.50;99.90;;;;;;5072748;28;20527;-82
2021/10/22 12:27:19;;;;;;;5.63;2.10;;;12.40;99.90;;;;;;5073264;28;20923;-82
2021/10/22 12:29:54;;;;;;;5.83;2.10;;;12.40;99.90;;;;;;5072540;28;20946;-82
2021/10/22 12:32:39;;;;;;;9.30;2.07;;;12.30;99.90;;;;;;5072777;28;20479;-81
2021/10/22 12:35:12;;;;;;;4.20;1.40;;;12.10;99.90;;;;;;5070109;28;20447;-81
2021/10/22 12:37:40;;;;;;;4.93;1.40;;;12.10;99.90;;;;;;5072434;28;20958;-81
2021/10/22 12:40:16;;;;;;;5.20;1.77;;;12.00;99.90;;;;;;5072370;28;20559;-81
2021/10/22 12:42:45;;;;;;;3.20;1.20;;;11.90;99.90;;;;;;5072600;28;20483;-81
2021/10/22 12:45:13;;;;;;;5.73;2.00;;;11.80;99.90;;;;;;5072537;28;21074;-81
2021/10/22 12:47:41;;;;;;;2.90;1.23;;;11.80;99.90;;;;;;5072515;28;20860;-81
2021/10/22 12:50:08;;;;;;;4.27;1.57;;;11.80;99.90;;;;;;5072493;28;20486;-81
2021/10/22 12:52:35;;;;;;;8.80;2.07;;;11.70;99.90;;;;;;5072196;28;20555;-81
2021/10/22 12:55:02;;;;;;;9.27;1.77;;;11.70;99.90;;;;;;5072468;28;20536;-81
2021/10/22 12:57:28;;;;;;;4.07;1.40;;;11.70;99.90;;;;;;5072745;28;20814;-81
2021/10/22 13:00:21;;;;;;;4.33;1.50;;;11.70;99.90;;;;;;5072511;28;20476;-81
2021/10/22 13:02:51;;;;;;;3.70;1.73;;;11.70;99.90;;;;;;5067373;28;20463;-81
2021/10/22 13:05:21;;;;;;;7.83;1.90;;;11.70;99.90;;;;;;5071864;28;20528;-81